Time;durP1;ratioP1;P1;durP2;ratioP2;P2;SDS_P1;SDS_P2;PMS_P1;PMS_P2;Temp;Humidity;BMP_temperature;BMP_pressure;BME280_temperature;BME280_humidity;BME280_pressure;Samples;Min_cycle;Max_cycle;Signal;HPM_P1;HPM_P2
2023/09/08 00:02:03;;;;;;;9.70;5.95;;;;;;;23.42;100.00;100412.94;5005373;28;20112;-77
2023/09/08 00:04:28;;;;;;;13.32;5.95;;;;;;;23.40;100.00;100417.34;5043585;28;20056;-77
2023/09/08 00:06:54;;;;;;;13.38;6.05;;;;;;;23.36;100.00;100413.66;5057909;28;20029;-77
2023/09/08 00:09:20;;;;;;;11.18;5.93;;;;;;;23.34;100.00;100416.88;5024494;28;20502;-77
2023/09/08 00:11:45;;;;;;;12.75;6.43;;;;;;;23.29;100.00;100417.22;5041334;28;20465;-77
2023/09/08 00:14:11;;;;;;;12.20;5.80;;;;;;;23.26;100.00;100417.97;5057982;28;20593;-77
2023/09/08 00:16:37;;;;;;;9.75;5.57;;;;;;;23.23;100.00;100417.91;5004876;28;20049;-77
2023/09/08 00:19:02;;;;;;;12.52;5.97;;;;;;;23.22;100.00;100417.09;5004853;28;20037;-77
2023/09/08 00:21:28;;;;;;;13.65;5.85;;;;;;;23.16;100.00;100418.63;5029260;28;20036;-77
2023/09/08 00:23:53;;;;;;;12.90;5.63;;;;;;;23.15;100.00;100406.50;5024460;28;20107;-77
2023/09/08 00:26:19;;;;;;;9.80;5.47;;;;;;;23.10;100.00;100403.19;5057957;28;20044;-77
2023/09/08 00:28:45;;;;;;;12.68;5.40;;;;;;;23.07;100.00;100403.94;5041019;28;20126;-77
2023/09/08 00:31:10;;;;;;;14.27;5.32;;;;;;;23.02;100.00;100402.25;5024615;28;20465;-77
2023/09/08 00:33:37;;;;;;;11.27;5.10;;;;;;;23.03;100.00;100406.69;5040134;28;20064;-77
2023/09/08 00:36:02;;;;;;;8.18;4.93;;;;;;;22.97;100.00;100411.88;5024380;28;20029;-77
2023/09/08 00:38:28;;;;;;;14.10;5.03;;;;;;;22.93;100.00;100408.16;5015555;28;20044;-77
2023/09/08 00:40:53;;;;;;;10.35;5.43;;;;;;;22.92;100.00;100406.50;5033524;28;20051;-77
2023/09/08 00:43:19;;;;;;;13.30;5.90;;;;;;;22.89;100.00;100404.44;5033978;28;20037;-78
2023/09/08 00:45:45;;;;;;;9.95;5.45;;;;;;;22.91;100.00;100404.88;5020752;28;20037;-77
2023/09/08 00:48:10;;;;;;;10.93;5.15;;;;;;;22.86;100.00;100407.22;5032710;28;20040;-77
2023/09/08 00:50:36;;;;;;;12.48;5.75;;;;;;;22.86;100.00;100404.38;5036855;28;20030;-77
2023/09/08 00:53:05;;;;;;;10.57;5.47;;;;;;;22.86;100.00;100404.38;5034178;28;20496;-77
2023/09/08 00:55:31;;;;;;;17.90;5.72;;;;;;;22.81;100.00;100405.50;5018872;28;20056;-77
2023/09/08 00:57:58;;;;;;;11.77;5.45;;;;;;;22.79;100.00;100407.09;5022843;28;20401;-77
2023/09/08 01:00:26;;;;;;;9.07;4.95;;;;;;;22.77;100.00;100404.66;5015531;28;20116;-78
2023/09/08 01:02:52;;;;;;;12.30;5.57;;;;;;;22.73;100.00;100412.25;5022610;28;20073;-78
2023/09/08 01:05:17;;;;;;;9.88;5.55;;;;;;;22.72;100.00;100404.97;5014409;28;20025;-77
2023/09/08 01:07:44;;;;;;;11.13;5.43;;;;;;;22.72;100.00;100399.31;5020494;28;20034;-78
2023/09/08 01:10:09;;;;;;;10.50;5.47;;;;;;;22.67;100.00;100397.59;5020241;28;20072;-77
2023/09/08 01:12:35;;;;;;;9.95;5.18;;;;;;;22.67;100.00;100402.47;5036663;28;20108;-77
2023/09/08 01:15:06;;;;;;;9.95;5.53;;;;;;;22.63;100.00;100399.56;5036837;28;20029;-77
2023/09/08 01:17:32;;;;;;;11.37;5.50;;;;;;;22.62;100.00;100394.28;5027200;28;20029;-77
2023/09/08 01:20:01;;;;;;;13.13;5.88;;;;;;;22.60;100.00;100396.69;5049778;28;20071;-77
2023/09/08 01:22:55;;;;;;;9.75;5.25;;;;;;;22.57;100.00;100397.44;5023327;28;20120;-77
2023/09/08 01:25:22;;;;;;;12.25;5.53;;;;;;;22.53;100.00;100398.19;5034917;28;20026;-77
2023/09/08 01:27:52;;;;;;;10.38;5.07;;;;;;;22.51;100.00;100396.94;5020030;28;20029;-77
2023/09/08 01:30:18;;;;;;;14.50;5.75;;;;;;;22.50;100.00;100390.44;5006341;28;20052;-77
2023/09/08 01:32:44;;;;;;;10.95;5.30;;;;;;;22.48;100.00;100392.03;5013675;28;20042;-77
2023/09/08 01:35:09;;;;;;;14.18;5.18;;;;;;;22.43;100.00;100390.34;5019580;28;20083;-78
2023/09/08 01:37:35;;;;;;;9.73;5.45;;;;;;;22.40;100.00;100393.94;5033178;28;20052;-78
2023/09/08 01:40:00;;;;;;;10.75;5.28;;;;;;;22.40;100.00;100393.09;4987338;28;20393;-78
2023/09/08 01:42:26;;;;;;;12.70;5.20;;;;;;;22.37;100.00;100397.53;5036198;28;20022;-77
2023/09/08 01:44:51;;;;;;;12.68;5.40;;;;;;;22.37;100.00;100393.84;5049484;28;20044;-78
2023/09/08 01:47:17;;;;;;;12.13;5.63;;;;;;;22.37;100.00;100391.03;5019985;28;20033;-77
2023/09/08 01:49:42;;;;;;;9.63;5.20;;;;;;;22.34;100.00;100391.78;5003111;28;20084;-77
2023/09/08 01:52:07;;;;;;;11.52;5.70;;;;;;;22.30;100.00;100392.53;4987098;28;20034;-78
2023/09/08 01:54:33;;;;;;;10.52;5.40;;;;;;;22.31;100.00;100401.84;5029486;28;20029;-77
2023/09/08 01:56:58;;;;;;;15.50;5.75;;;;;;;22.31;100.00;100396.19;5050167;28;20044;-78
2023/09/08 01:59:24;;;;;;;11.07;5.20;;;;;;;22.27;100.00;100398.94;5035928;28;20033;-77
2023/09/08 02:01:49;;;;;;;17.98;5.95;;;;;;;22.25;100.00;100397.69;5033120;28;20026;-77
2023/09/08 02:04:15;;;;;;;9.48;5.13;;;;;;;22.25;100.00;100398.50;5039971;28;20037;-78
2023/09/08 02:06:40;;;;;;;11.27;5.80;;;;;;;22.21;100.00;100394.81;5003093;28;20463;-77
2023/09/08 02:09:08;;;;;;;12.25;5.13;;;;;;;22.18;100.00;100400.41;5032377;28;20389;-78
2023/09/08 02:11:34;;;;;;;13.23;5.68;;;;;;;22.16;100.00;100399.91;5039463;28;20075;-77
2023/09/08 02:13:59;;;;;;;10.18;5.18;;;;;;;22.14;100.00;100402.31;5003638;28;20032;-78
2023/09/08 02:16:25;;;;;;;11.60;5.50;;;;;;;22.13;100.00;100397.84;5032189;28;20080;-77
2023/09/08 02:18:51;;;;;;;11.85;5.60;;;;;;;22.11;100.00;100403.06;5019071;28;20034;-77
2023/09/08 02:21:16;;;;;;;11.80;5.43;;;;;;;22.07;100.00;100392.50;5020008;28;20082;-77
2023/09/08 02:23:41;;;;;;;11.48;5.38;;;;;;;22.05;100.00;100391.22;5013718;28;20414;-77
2023/09/08 02:26:07;;;;;;;11.25;5.75;;;;;;;22.04;100.00;100395.25;5035932;28;20041;-77
2023/09/08 02:28:32;;;;;;;9.80;5.25;;;;;;;22.02;100.00;100395.63;5035901;28;20037;-77
2023/09/08 02:30:58;;;;;;;17.13;6.47;;;;;;;22.03;100.00;100394.41;5006503;28;20040;-77
2023/09/08 02:33:23;;;;;;;13.07;5.68;;;;;;;22.00;100.00;100402.84;5019150;28;20406;-78
2023/09/08 02:35:49;;;;;;;11.85;4.88;;;;;;;22.01;100.00;100402.47;5035474;28;20497;-77
2023/09/08 02:38:14;;;;;;;11.02;5.38;;;;;;;22.00;100.00;100400.81;5027980;28;20034;-78
2023/09/08 02:40:40;;;;;;;11.25;5.55;;;;;;;21.96;100.00;100396.31;5019969;28;20029;-77
2023/09/08 02:43:05;;;;;;;11.63;5.97;;;;;;;21.97;100.00;100401.56;5014839;28;20052;-77
2023/09/08 02:45:31;;;;;;;10.05;5.05;;;;;;;21.91;100.00;100394.59;5020344;28;20025;-78
2023/09/08 02:47:56;;;;;;;9.95;5.38;;;;;;;21.91;100.00;100397.44;5023320;28;20083;-78
2023/09/08 02:50:22;;;;;;;14.70;5.05;;;;;;;21.88;100.00;100395.34;5053688;28;20060;-77
2023/09/08 02:52:47;;;;;;;9.77;5.68;;;;;;;21.85;100.00;100399.75;5006711;28;20039;-77
2023/09/08 02:55:13;;;;;;;9.88;5.50;;;;;;;21.81;100.00;100395.19;5054642;28;20065;-78
2023/09/08 02:57:39;;;;;;;9.00;5.25;;;;;;;21.79;100.00;100395.59;5025080;28;20029;-78
2023/09/08 03:00:06;;;;;;;11.45;5.15;;;;;;;21.78;100.00;100384.63;5059562;28;20062;-77
2023/09/08 03:02:32;;;;;;;11.10;5.45;;;;;;;21.80;100.00;100385.09;5030476;28;20034;-78
2023/09/08 03:04:57;;;;;;;10.75;5.30;;;;;;;21.78;100.00;100387.47;5021440;28;20033;-78
2023/09/08 03:07:23;;;;;;;10.27;5.25;;;;;;;21.77;100.00;100383.81;5022611;28;20375;-77
2023/09/08 03:09:48;;;;;;;12.95;5.60;;;;;;;21.78;100.00;100387.47;5036090;28;20037;-77
2023/09/08 03:12:14;;;;;;;13.40;5.90;;;;;;;21.76;100.00;100384.22;5039275;28;20036;-77
2023/09/08 03:14:39;;;;;;;9.73;5.75;;;;;;;21.75;100.00;100386.19;5025723;28;20055;-78
2023/09/08 03:17:05;;;;;;;9.70;5.30;;;;;;;21.71;100.00;100387.34;5022317;28;20556;-77
2023/09/08 03:19:30;;;;;;;12.95;5.40;;;;;;;21.71;100.00;100378.84;5002464;28;20032;-77
2023/09/08 03:21:56;;;;;;;10.05;4.95;;;;;;;21.73;100.00;100387.75;5006278;28;20075;-78
2023/09/08 03:24:21;;;;;;;8.93;5.38;;;;;;;21.73;100.00;100382.09;5019067;28;20033;-77
2023/09/08 03:26:47;;;;;;;12.20;5.20;;;;;;;21.69;100.00;100384.06;5051007;28;20025;-77
2023/09/08 03:29:12;;;;;;;9.73;5.35;;;;;;;21.70;100.00;100380.03;5042035;28;20485;-77
2023/09/08 03:31:38;;;;;;;10.98;5.72;;;;;;;21.67;100.00;100380.78;5046459;28;20033;-77
2023/09/08 03:34:03;;;;;;;10.35;5.10;;;;;;;21.66;100.00;100376.31;5022337;28;20095;-78
2023/09/08 03:36:30;;;;;;;11.50;5.40;;;;;;;21.68;100.00;100382.44;5038767;28;20056;-77
2023/09/08 03:38:57;;;;;;;10.35;5.10;;;;;;;21.69;100.00;100375.59;5022180;28;20040;-78
2023/09/08 03:41:23;;;;;;;9.45;5.30;;;;;;;21.64;100.00;100377.50;5034478;28;20036;-77
2023/09/08 03:43:49;;;;;;;12.88;5.68;;;;;;;21.67;100.00;100372.31;5044776;28;20061;-78
2023/09/08 03:46:14;;;;;;;10.05;5.38;;;;;;;21.60;100.00;100373.78;5047196;28;20544;-77
2023/09/08 03:48:40;;;;;;;10.15;5.50;;;;;;;21.61;100.00;100375.41;5038034;28;20124;-77
2023/09/08 03:51:05;;;;;;;9.20;5.40;;;;;;;21.64;100.00;100371.03;5029554;28;20045;-77
2023/09/08 03:53:31;;;;;;;8.85;5.07;;;;;;;21.62;100.00;100364.97;5021021;28;20029;-77
2023/09/08 03:55:56;;;;;;;11.02;5.22;;;;;;;21.60;100.00;100368.16;5037094;28;20032;-77
2023/09/08 03:58:22;;;;;;;7.82;4.72;;;;;;;21.59;100.00;100365.69;5051437;28;20037;-77
2023/09/08 04:00:47;;;;;;;10.75;5.28;;;;;;;21.62;100.00;100365.78;5029254;28;20371;-77
2023/09/08 04:03:13;;;;;;;9.90;5.63;;;;;;;21.58;100.00;100370.53;5052435;28;20029;-77
2023/09/08 04:05:38;;;;;;;10.73;5.15;;;;;;;21.53;100.00;100379.28;5031921;28;20030;-78
2023/09/08 04:08:05;;;;;;;10.40;5.07;;;;;;;21.53;100.00;100361.53;5020274;28;20029;-78
2023/09/08 04:10:30;;;;;;;9.63;5.28;;;;;;;21.49;100.00;100364.28;5005104;28;20473;-77
2023/09/08 04:12:56;;;;;;;9.80;5.65;;;;;;;21.51;100.00;100361.09;5021489;28;20099;-78
2023/09/08 04:15:22;;;;;;;8.95;5.07;;;;;;;21.53;100.00;100370.81;5021398;28;20044;-77
2023/09/08 04:17:48;;;;;;;9.43;5.00;;;;;;;21.48;100.00;100359.84;5018191;28;20110;-78
2023/09/08 04:20:14;;;;;;;9.48;5.20;;;;;;;21.51;100.00;100361.09;5013085;28;20041;-77
2023/09/08 04:22:40;;;;;;;10.18;5.65;;;;;;;21.46;100.00;100370.69;5005199;28;20033;-77
2023/09/08 04:25:06;;;;;;;9.68;5.22;;;;;;;21.49;100.00;100372.75;5021127;28;20079;-77
2023/09/08 04:27:32;;;;;;;9.82;5.13;;;;;;;21.42;100.00;100366.94;5017960;28;20049;-77
2023/09/08 04:29:59;;;;;;;9.73;5.47;;;;;;;21.47;100.00;100369.47;5017078;28;20033;-77
2023/09/08 04:32:24;;;;;;;12.80;5.75;;;;;;;21.41;100.00;100365.31;5021924;28;20465;-78
2023/09/08 04:34:50;;;;;;;7.40;4.90;;;;;;;21.38;100.00;100368.88;5029516;28;20025;-77
2023/09/08 04:37:16;;;;;;;10.43;5.18;;;;;;;21.39;100.00;100371.31;5020999;28;20087;-77
2023/09/08 04:39:41;;;;;;;10.93;5.32;;;;;;;21.37;100.00;100365.25;5028354;28;20030;-77
2023/09/08 04:42:07;;;;;;;9.07;5.40;;;;;;;21.40;100.00;100375.00;5020870;28;20033;-78
2023/09/08 04:44:32;;;;;;;9.77;5.30;;;;;;;21.34;100.00;100376.41;5027073;28;20428;-77
2023/09/08 04:46:58;;;;;;;8.23;5.15;;;;;;;21.37;100.00;100370.09;5034118;28;20025;-77
2023/09/08 04:49:23;;;;;;;10.15;5.10;;;;;;;21.34;100.00;100370.78;5020389;28;20029;-77
2023/09/08 04:51:48;;;;;;;12.27;5.10;;;;;;;21.34;100.00;100370.78;5034378;28;20095;-77
2023/09/08 04:54:14;;;;;;;11.82;5.07;;;;;;;21.27;100.00;100374.28;5040379;28;20033;-77
2023/09/08 04:56:40;;;;;;;8.13;5.05;;;;;;;21.25;100.00;100373.00;5039577;28;20022;-77
2023/09/08 04:59:06;;;;;;;6.93;5.03;;;;;;;21.24;100.00;100377.84;5011590;28;20501;-77
2023/09/08 05:01:32;;;;;;;7.53;4.57;;;;;;;21.24;100.00;100371.38;5034373;28;20037;-77
2023/09/08 05:03:59;;;;;;;7.72;4.72;;;;;;;21.19;100.00;100364.81;5050908;28;20067;-77
2023/09/08 05:06:24;;;;;;;11.75;5.28;;;;;;;21.23;100.00;100370.56;5052909;28;20505;-77
2023/09/08 05:08:50;;;;;;;9.85;4.95;;;;;;;21.24;100.00;100371.38;5020633;28;20144;-77
2023/09/08 05:11:16;;;;;;;10.77;5.53;;;;;;;21.22;100.00;100377.38;5016731;28;20505;-77
2023/09/08 05:13:42;;;;;;;10.48;5.28;;;;;;;21.17;100.00;100372.03;5031862;28;20071;-78
2023/09/08 05:16:11;;;;;;;10.02;5.20;;;;;;;21.17;100.00;100370.03;5005645;28;20030;-78
2023/09/08 05:18:39;;;;;;;8.82;5.28;;;;;;;21.18;100.00;100374.50;5020451;28;20091;-77
2023/09/08 05:21:05;;;;;;;9.27;5.32;;;;;;;21.09;100.00;100373.88;5020448;28;20036;-77
2023/09/08 05:23:31;;;;;;;12.68;6.10;;;;;;;21.07;100.00;100379.06;5003822;28;20112;-77
2023/09/08 05:25:56;;;;;;;12.52;5.68;;;;;;;21.13;100.00;100377.59;5022770;28;20087;-78
2023/09/08 05:28:22;;;;;;;9.55;5.25;;;;;;;21.05;100.00;100378.63;5043855;28;20034;-77
2023/09/08 05:30:47;;;;;;;11.77;5.60;;;;;;;21.03;100.00;100374.53;5049519;28;20025;-77
2023/09/08 05:33:13;;;;;;;10.48;5.40;;;;;;;21.08;100.00;100369.41;5012355;28;20046;-77
2023/09/08 05:35:38;;;;;;;9.30;5.75;;;;;;;21.02;100.00;100379.34;5005141;28;20037;-77
2023/09/08 05:38:05;;;;;;;7.47;5.40;;;;;;;20.99;100.00;100382.91;5047237;28;20053;-78
2023/09/08 05:40:30;;;;;;;11.13;6.00;;;;;;;20.98;100.00;100384.13;5023100;28;20488;-77
2023/09/08 05:42:56;;;;;;;10.25;5.82;;;;;;;20.89;100.00;100384.28;5023129;28;20055;-77
2023/09/08 05:45:22;;;;;;;11.68;6.07;;;;;;;20.92;100.00;100377.09;5023089;28;20028;-77
2023/09/08 05:47:49;;;;;;;9.60;5.40;;;;;;;20.96;100.00;100378.00;5003568;28;20084;-78
2023/09/08 05:50:14;;;;;;;7.70;5.80;;;;;;;20.92;100.00;100385.56;5033014;28;20033;-77
2023/09/08 05:52:40;;;;;;;9.38;5.53;;;;;;;20.90;100.00;100382.31;5027693;28;20039;-77
2023/09/08 05:55:06;;;;;;;11.25;5.65;;;;;;;20.89;100.00;100389.13;5054935;28;20033;-77
2023/09/08 05:57:31;;;;;;;9.63;6.00;;;;;;;20.89;100.00;100394.78;5017707;28;20021;-77
2023/09/08 05:59:57;;;;;;;11.13;5.63;;;;;;;20.86;100.00;100389.88;5021716;28;20060;-77
2023/09/08 06:02:22;;;;;;;12.80;5.60;;;;;;;20.88;100.00;100390.31;4987280;28;20036;-77
2023/09/08 06:04:48;;;;;;;11.15;5.88;;;;;;;20.92;100.00;100392.06;5015719;28;20034;-77
2023/09/08 06:07:13;;;;;;;8.60;5.57;;;;;;;20.91;100.00;100393.22;5034707;28;20032;-78
2023/09/08 06:09:39;;;;;;;11.52;6.00;;;;;;;20.90;100.00;100402.06;5039102;28;20036;-77
2023/09/08 06:12:05;;;;;;;13.63;6.40;;;;;;;20.94;100.00;100408.59;5037201;28;20033;-77
2023/09/08 06:14:30;;;;;;;12.32;5.47;;;;;;;20.94;100.00;100408.59;5035880;28;20569;-77
2023/09/08 06:16:56;;;;;;;8.50;5.82;;;;;;;20.96;100.00;100409.06;5027624;28;20029;-77
2023/09/08 06:19:21;;;;;;;11.23;5.65;;;;;;;21.01;100.00;100410.78;5017617;28;20056;-78
2023/09/08 06:21:47;;;;;;;11.00;6.25;;;;;;;21.05;100.00;100415.31;5035208;28;20029;-77
2023/09/08 06:24:12;;;;;;;12.07;6.20;;;;;;;21.07;100.00;100410.13;5036473;28;20033;-77
2023/09/08 06:26:38;;;;;;;10.85;6.47;;;;;;;21.14;100.00;100413.09;5007139;28;20091;-77
2023/09/08 06:29:03;;;;;;;12.25;6.40;;;;;;;21.17;100.00;100411.56;5024854;28;20509;-78
2023/09/08 06:31:29;;;;;;;10.80;6.20;;;;;;;21.24;100.00;100423.03;5006981;28;20071;-78
2023/09/08 06:33:54;;;;;;;11.02;6.75;;;;;;;21.29;100.00;100424.75;5052618;28;20045;-77
2023/09/08 06:36:20;;;;;;;13.80;8.02;;;;;;;21.33;100.00;100426.44;5006741;28;20042;-78
2023/09/08 06:38:45;;;;;;;12.05;6.38;;;;;;;21.37;100.00;100420.94;5053009;28;20028;-77
2023/09/08 06:41:11;;;;;;;12.35;7.18;;;;;;;21.45;100.00;100427.53;5039702;28;20033;-78
2023/09/08 06:43:37;;;;;;;11.40;7.10;;;;;;;21.48;100.00;100416.34;4992931;28;20032;-77
2023/09/08 06:46:02;;;;;;;11.95;6.78;;;;;;;21.55;100.00;100419.31;5017188;28;20060;-78
2023/09/08 06:48:29;;;;;;;9.95;6.15;;;;;;;21.60;100.00;100418.19;4990110;28;20033;-77
2023/09/08 06:50:56;;;;;;;13.77;6.28;;;;;;;21.67;100.00;100429.63;5012868;28;20037;-78
2023/09/08 06:53:24;;;;;;;13.60;6.50;;;;;;;21.73;100.00;100425.34;5023223;28;20029;-78
2023/09/08 06:55:50;;;;;;;12.40;6.55;;;;;;;21.81;100.00;100423.47;5023726;28;20021;-78
2023/09/08 06:58:15;;;;;;;12.25;6.40;;;;;;;21.86;100.00;100420.34;5035976;28;20080;-78
2023/09/08 07:00:41;;;;;;;12.48;6.90;;;;;;;21.93;100.00;100431.00;5022996;28;20394;-78
2023/09/08 07:03:08;;;;;;;13.82;6.65;;;;;;;21.99;100.00;100424.66;5019706;28;20033;-78
2023/09/08 07:05:35;;;;;;;12.38;6.45;;;;;;;22.05;100.00;100425.97;5022632;28;20087;-78
2023/09/08 07:08:01;;;;;;;12.10;7.38;;;;;;;22.11;100.00;100420.03;5019812;28;20061;-78
2023/09/08 07:10:27;;;;;;;13.85;6.72;;;;;;;22.17;100.00;100427.00;4989971;28;20036;-78
2023/09/08 07:12:52;;;;;;;14.10;7.65;;;;;;;22.24;100.00;100424.34;5052223;28;20030;-78
2023/09/08 07:15:18;;;;;;;14.63;7.70;;;;;;;22.32;100.00;100430.97;5022463;28;20034;-78
2023/09/08 07:17:43;;;;;;;15.95;7.60;;;;;;;22.38;100.00;100430.25;5006022;28;20037;-78
2023/09/08 07:20:09;;;;;;;15.55;8.27;;;;;;;22.46;100.00;100434.06;5022435;28;20033;-78
2023/09/08 07:22:35;;;;;;;15.75;9.13;;;;;;;22.55;100.00;100434.59;5022395;28;20045;-78
2023/09/08 07:25:00;;;;;;;15.32;9.63;;;;;;;22.64;100.00;100438.00;4989593;28;20076;-78
2023/09/08 07:27:26;;;;;;;18.65;9.20;;;;;;;22.74;100.00;100430.91;5027147;28;20057;-78
2023/09/08 07:29:51;;;;;;;25.40;12.18;;;;;;;22.85;100.00;100437.56;5053436;28;20036;-78
2023/09/08 07:32:17;;;;;;;17.08;9.45;;;;;;;22.95;100.00;100434.09;5040652;28;20498;-78
2023/09/08 07:34:43;;;;;;;19.27;11.18;;;;;;;23.06;100.00;100441.94;5041886;28;20047;-78
2023/09/08 07:37:08;;;;;;;14.82;9.88;;;;;;;23.19;100.00;100440.53;5028820;28;20041;-78
2023/09/08 07:39:35;;;;;;;21.90;9.65;;;;;;;23.32;100.00;100441.94;5032793;28;20036;-78
2023/09/08 07:42:01;;;;;;;21.95;11.98;;;;;;;23.41;100.00;100442.47;5038355;28;20041;-78
2023/09/08 07:44:26;;;;;;;20.42;9.77;;;;;;;23.54;100.00;100440.25;5036986;28;20504;-78
2023/09/08 07:46:52;;;;;;;13.43;8.05;;;;;;;23.73;100.00;100429.97;5021080;28;20405;-78
2023/09/08 07:49:21;;;;;;;14.18;8.35;;;;;;;23.90;100.00;100435.03;5047964;28;20478;-78
2023/09/08 07:51:47;;;;;;;18.83;8.52;;;;;;;24.04;100.00;100440.91;5009492;28;20131;-78
2023/09/08 07:54:13;;;;;;;16.27;8.63;;;;;;;24.19;100.00;100430.50;5022312;28;20033;-78
2023/09/08 07:56:40;;;;;;;14.75;9.10;;;;;;;24.33;100.00;100438.38;5000772;28;20425;-78
2023/09/08 07:59:06;;;;;;;17.88;9.00;;;;;;;24.47;100.00;100440.56;5058391;28;20032;-78
2023/09/08 08:01:32;;;;;;;16.27;8.90;;;;;;;24.61;100.00;100437.84;5041762;28;20033;-78
2023/09/08 08:03:57;;;;;;;20.98;11.40;;;;;;;24.78;100.00;100444.09;5041251;28;20040;-78
2023/09/08 08:06:23;;;;;;;16.05;7.78;;;;;;;24.93;100.00;100440.13;5037375;28;20048;-78
2023/09/08 08:08:48;;;;;;;20.55;9.80;;;;;;;25.11;100.00;100446.78;5033390;28;20029;-78
2023/09/08 08:11:15;;;;;;;13.63;7.80;;;;;;;25.29;100.00;100448.97;5037636;28;20038;-78
2023/09/08 08:13:40;;;;;;;18.58;7.53;;;;;;;25.48;100.00;100451.50;5013832;28;20087;-78
2023/09/08 08:16:06;;;;;;;20.95;10.18;;;;;;;25.69;100.00;100452.84;5021143;28;20037;-79
2023/09/08 08:18:31;;;;;;;24.42;11.05;;;;;;;25.84;100.00;100449.69;5029700;28;20041;-78
2023/09/08 08:20:57;;;;;;;18.77;10.00;;;;;;;26.01;100.00;100448.13;5036120;28;20036;-78
2023/09/08 08:23:22;;;;;;;16.48;9.73;;;;;;;26.24;100.00;100455.50;5021358;28;20059;-78
2023/09/08 08:25:51;;;;;;;22.90;11.23;;;;;;;26.44;100.00;100453.94;5034265;28;20026;-78
2023/09/08 08:28:16;;;;;;;18.33;8.75;;;;;;;26.66;100.00;100449.13;5037898;28;20409;-78
2023/09/08 08:30:42;;;;;;;19.92;9.45;;;;;;;26.83;100.00;100447.50;5021126;28;20040;-79
2023/09/08 08:33:07;;;;;;;13.80;6.88;;;;;;;27.10;100.00;100447.06;5037604;28;20045;-78
2023/09/08 08:35:33;;;;;;;18.70;9.15;;;;;;;27.24;100.00;100461.34;5040733;28;20033;-78
2023/09/08 08:37:59;;;;;;;20.52;7.60;;;;;;;27.50;100.00;100454.38;5021254;28;20030;-79
2023/09/08 08:40:26;;;;;;;15.68;8.05;;;;;;;27.68;100.00;100454.31;5051761;28;20033;-79
2023/09/08 08:42:56;;;;;;;17.45;8.40;;;;;;;27.91;100.00;100456.69;5004201;28;20037;-79
2023/09/08 08:45:25;;;;;;;12.35;6.05;;;;;;;28.15;100.00;100457.81;5030667;28;20029;-78
2023/09/08 08:47:52;;;;;;;19.10;7.80;;;;;;;28.39;100.00;100458.06;5004775;28;20033;-79
2023/09/08 08:50:17;;;;;;;14.88;7.30;;;;;;;28.59;100.00;100461.25;5033379;28;20032;-78
2023/09/08 08:52:43;;;;;;;22.40;7.78;;;;;;;28.79;100.00;100458.66;5037440;28;20038;-79
2023/09/08 08:55:08;;;;;;;13.82;6.00;;;;;;;29.03;100.00;100460.53;5034920;28;20029;-79
2023/09/08 08:57:34;;;;;;;17.17;7.80;;;;;;;29.25;100.00;100457.44;5012092;28;20025;-79
2023/09/08 09:00:00;;;;;;;19.45;7.75;;;;;;;29.40;100.00;100462.59;5003060;28;20063;-79
2023/09/08 09:02:25;;;;;;;15.27;7.60;;;;;;;29.55;100.00;100462.44;5016418;28;20032;-79
2023/09/08 09:04:51;;;;;;;17.33;7.10;;;;;;;29.73;100.00;100462.28;5021246;28;20068;-79
2023/09/08 09:07:16;;;;;;;16.38;6.45;;;;;;;29.92;100.00;100463.66;5032584;28;20043;-79
2023/09/08 09:09:42;;;;;;;15.15;6.18;;;;;;;30.11;100.00;100468.72;5021319;28;20095;-79
2023/09/08 09:12:07;;;;;;;10.60;5.40;;;;;;;30.28;100.00;100472.63;5036674;28;20029;-79
2023/09/08 09:14:33;;;;;;;9.38;5.13;;;;;;;30.43;100.00;100465.47;5004133;28;20033;-78
2023/09/08 09:16:59;;;;;;;15.57;5.38;;;;;;;30.59;100.00;100472.59;5013087;28;20030;-79
2023/09/08 09:19:27;;;;;;;13.25;6.13;;;;;;;30.66;100.00;100472.50;5019566;28;20076;-79
2023/09/08 09:21:54;;;;;;;16.70;6.38;;;;;;;30.73;100.00;100472.38;5023923;28;20059;-79
2023/09/08 09:24:43;;;;;;;15.25;6.18;;;;;;;30.81;100.00;100468.16;5023895;28;20117;-79
2023/09/08 09:27:09;;;;;;;17.08;6.50;;;;;;;30.79;100.00;100464.09;5039540;28;20048;-79
2023/09/08 09:29:46;;;;;;;14.95;6.30;;;;;;;30.84;100.00;100461.59;5010565;28;20036;-78
2023/09/08 09:32:12;;;;;;;19.63;6.55;;;;;;;30.80;100.00;100454.28;5017230;28;20096;-79
2023/09/08 09:34:53;;;;;;;12.35;6.07;;;;;;;30.77;100.00;100458.78;5023007;28;20025;-79
2023/09/08 09:37:18;;;;;;;14.20;5.80;;;;;;;30.75;100.00;100455.53;5049517;28;20390;-79
2023/09/08 09:39:48;;;;;;;8.90;4.90;;;;;;;30.74;100.00;100451.06;5019967;28;20045;-79
2023/09/08 09:42:14;;;;;;;9.70;5.35;;;;;;;30.72;100.00;100447.81;4987307;28;20528;-79
2023/09/08 09:44:39;;;;;;;12.50;6.03;;;;;;;30.69;100.00;100448.69;4998736;28;20083;-79
2023/09/08 09:47:06;;;;;;;14.48;5.82;;;;;;;30.65;100.00;100445.09;5019706;28;20028;-79
2023/09/08 09:49:32;;;;;;;11.38;4.93;;;;;;;30.61;100.00;100447.19;5047525;28;20033;-79
2023/09/08 09:51:57;;;;;;;10.88;4.68;;;;;;;30.58;100.00;100445.19;5037626;28;20026;-79
2023/09/08 09:54:23;;;;;;;12.05;5.10;;;;;;;30.54;100.00;100442.38;5014849;28;20024;-79
2023/09/08 09:56:50;;;;;;;13.80;5.50;;;;;;;30.52;100.00;100449.78;5050825;28;20029;-79
2023/09/08 09:59:15;;;;;;;12.13;5.65;;;;;;;30.47;100.00;100451.88;5044045;28;20418;-79
2023/09/08 10:01:42;;;;;;;9.02;4.72;;;;;;;30.45;100.00;100451.53;5038612;28;20021;-76
2023/09/08 10:04:08;;;;;;;14.35;6.50;;;;;;;30.39;100.00;100447.50;5009917;28;20116;-76
2023/09/08 10:06:39;;;;;;;13.05;5.82;;;;;;;30.38;100.00;100457.34;5038975;28;20049;-76
2023/09/08 10:09:08;;;;;;;14.32;6.30;;;;;;;30.38;100.00;100453.69;5042429;28;20083;-76
2023/09/08 10:11:45;;;;;;;14.80;6.40;;;;;;;30.33;100.00;100448.44;5020076;28;20029;-76
2023/09/08 10:14:11;;;;;;;14.13;6.20;;;;;;;30.30;100.00;100450.09;5019573;28;20036;-76
2023/09/08 10:16:38;;;;;;;11.90;5.43;;;;;;;30.31;100.00;100457.44;5009388;28;20029;-76
2023/09/08 10:19:09;;;;;;;10.52;5.85;;;;;;;30.32;100.00;100464.00;5021027;28;20041;-76
2023/09/08 10:21:39;;;;;;;12.98;5.55;;;;;;;30.28;100.00;100459.13;5049779;28;20055;-76
2023/09/08 10:24:27;;;;;;;14.73;5.70;;;;;;;30.37;100.00;100441.41;5038405;28;20083;-76
2023/09/08 10:27:00;;;;;;;17.60;6.57;;;;;;;30.36;100.00;100448.38;5013719;28;20045;-76
2023/09/08 10:29:27;;;;;;;9.05;5.30;;;;;;;30.48;100.00;100447.00;5019727;28;20482;-76
2023/09/08 10:31:52;;;;;;;10.55;5.35;;;;;;;30.58;100.00;100448.06;5032308;28;20119;-76
2023/09/08 10:34:18;;;;;;;12.73;6.45;;;;;;;30.67;100.00;100445.44;5040309;28;20037;-76
2023/09/08 10:36:43;;;;;;;15.05;6.28;;;;;;;30.89;100.00;100445.94;5015612;28;20026;-76
2023/09/08 10:39:39;;;;;;;16.75;7.05;;;;;;;30.99;100.00;100450.69;5003454;28;20045;-76
2023/09/08 10:42:31;;;;;;;11.40;6.22;;;;;;;31.16;100.00;100446.69;5036775;28;20400;-76
2023/09/08 10:44:57;;;;;;;18.63;6.22;;;;;;;31.39;100.00;100445.88;5049851;28;20033;-76
2023/09/08 10:47:33;;;;;;;11.82;5.30;;;;;;;31.59;100.00;100445.06;5007093;28;20030;-76
2023/09/08 10:50:00;;;;;;;10.43;4.93;;;;;;;31.78;100.00;100452.09;4999003;28;20104;-76
2023/09/08 10:52:25;;;;;;;11.20;5.22;;;;;;;31.91;100.00;100443.63;5009843;28;20086;-76
2023/09/08 10:54:52;;;;;;;11.93;5.30;;;;;;;32.07;100.00;100437.97;5034703;28;20032;-76
2023/09/08 10:57:22;;;;;;;11.90;5.60;;;;;;;32.20;100.00;100438.06;5033559;28;20502;-76
2023/09/08 10:59:57;;;;;;;8.98;5.43;;;;;;;32.40;100.00;100429.41;5022768;28;20085;-76
2023/09/08 11:02:43;;;;;;;14.52;5.75;;;;;;;32.52;100.00;100425.06;5061573;28;20036;-76
2023/09/08 11:05:11;;;;;;;11.10;5.28;;;;;;;32.63;100.00;100429.28;5046374;28;20567;-77
2023/09/08 11:07:37;;;;;;;9.18;5.20;;;;;;;32.72;100.00;100431.53;5046416;28;20025;-76
2023/09/08 11:10:03;;;;;;;6.93;5.13;;;;;;;32.81;100.00;100422.28;5033326;28;20036;-76